createdAt,value
2023-04-16T00:00:07.899Z,22.62
2023-04-16T00:01:07.999Z,22.62
2023-04-16T00:02:08.144Z,22.61
2023-04-16T00:03:08.261Z,22.62
2023-04-16T00:04:08.254Z,22.61
2023-04-16T00:05:08.331Z,22.62
2023-04-16T00:06:08.217Z,22.62
2023-04-16T00:07:08.239Z,22.62
2023-04-16T00:08:08.315Z,22.62
2023-04-16T00:09:08.538Z,22.61
2023-04-16T00:10:08.411Z,22.61
2023-04-16T00:11:08.468Z,22.61
2023-04-16T00:12:09.201Z,22.61
2023-04-16T00:13:08.596Z,22.61
2023-04-16T00:14:08.644Z,22.61
2023-04-16T00:15:08.747Z,22.60
2023-04-16T00:16:09.278Z,22.60
2023-04-16T00:17:08.807Z,22.60
2023-04-16T00:18:08.835Z,22.60
2023-04-16T00:19:09.055Z,22.59
2023-04-16T00:20:08.959Z,22.60
2023-04-16T00:21:09.027Z,22.60
2023-04-16T00:22:09.023Z,22.60
2023-04-16T00:23:09.007Z,22.60
2023-04-16T00:24:08.963Z,22.60
2023-04-16T00:25:09.064Z,22.60
2023-04-16T00:26:09.269Z,22.60
2023-04-16T00:27:09.276Z,22.60
2023-04-16T00:28:10.946Z,22.60
2023-04-16T00:29:09.547Z,22.59
2023-04-16T00:30:09.401Z,22.60
2023-04-16T00:31:09.443Z,22.60
2023-04-16T00:32:09.477Z,22.60
2023-04-16T00:33:09.549Z,22.60
2023-04-16T00:34:09.588Z,22.60
2023-04-16T00:35:09.658Z,22.59
2023-04-16T00:36:09.718Z,22.59
2023-04-16T00:37:09.770Z,22.59
2023-04-16T00:38:09.818Z,22.58
2023-04-16T00:39:10.126Z,22.59
2023-04-16T00:40:09.999Z,22.58
2023-04-16T00:41:10.012Z,22.59
2023-04-16T00:42:10.160Z,22.58
2023-04-16T00:43:10.132Z,22.59
2023-04-16T00:44:10.210Z,22.58
2023-04-16T00:45:10.293Z,22.59
2023-04-16T00:46:10.384Z,22.59
2023-04-16T00:47:10.372Z,22.58
2023-04-16T00:48:10.444Z,22.58
2023-04-16T00:49:10.766Z,22.58
2023-04-16T00:50:10.584Z,22.58
2023-04-16T00:51:10.639Z,22.58
2023-04-16T00:52:10.700Z,22.58
2023-04-16T00:53:10.752Z,22.58
2023-04-16T00:54:10.872Z,22.57
2023-04-16T00:55:10.981Z,22.57
2023-04-16T00:56:10.923Z,22.57
2023-04-16T00:57:11.042Z,22.57
2023-04-16T00:58:11.106Z,22.57
2023-04-16T00:59:11.344Z,22.57
2023-04-16T01:00:11.200Z,22.58
2023-04-16T01:01:11.417Z,22.57
2023-04-16T01:02:11.358Z,22.57
2023-04-16T01:03:11.483Z,22.57
2023-04-16T01:04:11.560Z,22.58
2023-04-16T01:05:11.574Z,22.57
2023-04-16T01:06:11.469Z,22.57
2023-04-16T01:07:11.553Z,22.58
2023-04-16T01:08:11.560Z,22.57
2023-04-16T01:09:11.745Z,22.57
2023-04-16T01:10:11.718Z,22.57
2023-04-16T01:11:11.857Z,22.57
2023-04-16T01:12:11.865Z,22.57
2023-04-16T01:13:11.897Z,22.57
2023-04-16T01:14:11.942Z,22.56
2023-04-16T01:15:12.070Z,22.56
2023-04-16T01:16:12.110Z,22.57
2023-04-16T01:17:12.134Z,22.56
2023-04-16T01:18:12.212Z,22.56
2023-04-16T01:19:12.420Z,22.56
2023-04-16T01:20:12.502Z,22.56
2023-04-16T01:21:12.375Z,22.56
2023-04-16T01:22:12.484Z,22.56
2023-04-16T01:23:12.532Z,22.56
2023-04-16T01:24:12.604Z,22.56
2023-04-16T01:25:12.683Z,22.56
2023-04-16T01:26:12.737Z,22.56
2023-04-16T01:27:12.785Z,22.55
2023-04-16T01:28:12.783Z,22.56
2023-04-16T01:29:12.842Z,22.55
2023-04-16T01:30:12.871Z,22.56
2023-04-16T01:31:13.772Z,22.55
2023-04-16T01:32:13.126Z,22.55
2023-04-16T01:33:13.065Z,22.55
2023-04-16T01:34:13.138Z,22.55
2023-04-16T01:35:13.246Z,22.55
2023-04-16T01:36:13.287Z,22.55
2023-04-16T01:37:13.768Z,22.54
2023-04-16T01:38:13.387Z,22.54
2023-04-16T01:39:13.476Z,22.54
2023-04-16T01:40:13.575Z,22.55
2023-04-16T01:41:13.647Z,22.55
2023-04-16T01:42:13.648Z,22.54
2023-04-16T01:43:13.722Z,22.54
2023-04-16T01:44:13.766Z,22.54
2023-04-16T01:45:13.874Z,22.54
2023-04-16T01:46:13.935Z,22.54
2023-04-16T01:47:14.011Z,22.53
2023-04-16T01:48:14.030Z,22.54
2023-04-16T01:49:14.102Z,22.53
2023-04-16T01:50:14.149Z,22.54
2023-04-16T01:51:14.234Z,22.53
2023-04-16T01:52:14.327Z,22.53
2023-04-16T01:53:14.414Z,22.53
2023-04-16T01:54:14.371Z,22.53
2023-04-16T01:55:14.469Z,22.53
2023-04-16T01:56:14.568Z,22.53
2023-04-16T01:57:14.580Z,22.53
2023-04-16T01:58:14.628Z,22.53
2023-04-16T01:59:14.714Z,22.53
2023-04-16T02:00:14.791Z,22.54
2023-04-16T02:01:14.888Z,22.53
2023-04-16T02:02:14.994Z,22.54
2023-04-16T02:03:15.048Z,22.53
2023-04-16T02:04:15.026Z,22.53
2023-04-16T02:05:15.051Z,22.53
2023-04-16T02:06:15.135Z,22.53
2023-04-16T02:07:15.239Z,22.52
2023-04-16T02:08:15.178Z,22.52
2023-04-16T02:09:15.163Z,22.52
2023-04-16T02:10:15.137Z,22.52
2023-04-16T02:11:15.174Z,22.52
2023-04-16T02:12:15.143Z,22.52
2023-04-16T02:13:15.177Z,22.52
2023-04-16T02:14:15.160Z,22.51
2023-04-16T02:15:15.189Z,22.51
2023-04-16T02:16:15.274Z,22.51
2023-04-16T02:17:15.306Z,22.51
2023-04-16T02:18:15.402Z,22.51
2023-04-16T02:19:15.426Z,22.51
2023-04-16T02:20:15.503Z,22.51
2023-04-16T02:21:15.546Z,22.51
2023-04-16T02:22:15.620Z,22.51
2023-04-16T02:23:15.727Z,22.51
2023-04-16T02:24:15.737Z,22.51
2023-04-16T02:25:15.847Z,22.51
2023-04-16T02:26:15.872Z,22.50
2023-04-16T02:27:15.920Z,22.50
2023-04-16T02:28:15.948Z,22.49
2023-04-16T02:29:16.040Z,22.50
2023-04-16T02:30:16.107Z,22.49
2023-04-16T02:31:16.339Z,22.50
2023-04-16T02:32:16.458Z,22.50
2023-04-16T02:33:16.355Z,22.49
2023-04-16T02:34:16.410Z,22.50
2023-04-16T02:35:16.410Z,22.50
2023-04-16T02:36:16.460Z,22.50
2023-04-16T02:37:16.502Z,22.49
2023-04-16T02:38:16.577Z,22.50
2023-04-16T02:39:16.822Z,22.50
2023-04-16T02:40:16.690Z,22.49
2023-04-16T02:41:16.753Z,22.50
2023-04-16T02:42:16.836Z,22.49
2023-04-16T02:43:16.842Z,22.49
2023-04-16T02:44:16.921Z,22.49
2023-04-16T02:45:16.994Z,22.49
2023-04-16T02:46:17.077Z,22.48
2023-04-16T02:47:17.124Z,22.49
2023-04-16T02:48:17.091Z,22.48
2023-04-16T02:49:17.108Z,22.49
2023-04-16T02:50:17.173Z,22.49
2023-04-16T02:51:17.252Z,22.49
2023-04-16T02:52:17.290Z,22.48
2023-04-16T02:53:17.513Z,22.47
2023-04-16T02:54:17.416Z,22.48
2023-04-16T02:55:17.469Z,22.48
2023-04-16T02:56:17.515Z,22.47
2023-04-16T02:57:17.555Z,22.48
2023-04-16T02:58:17.641Z,22.48
2023-04-16T02:59:17.669Z,22.48
2023-04-16T03:00:17.713Z,22.48
2023-04-16T03:01:17.826Z,22.47
2023-04-16T03:02:17.910Z,22.48
2023-04-16T03:03:17.979Z,22.47
2023-04-16T03:04:18.022Z,22.48
2023-04-16T03:05:18.090Z,22.48
2023-04-16T03:06:18.060Z,22.47
2023-04-16T03:07:18.009Z,22.47
2023-04-16T03:08:18.010Z,22.48
2023-04-16T03:09:18.019Z,22.48
2023-04-16T03:10:18.094Z,22.47
2023-04-16T03:11:18.056Z,22.47
2023-04-16T03:12:17.989Z,22.47
2023-04-16T03:13:18.000Z,22.47
2023-04-16T03:14:18.051Z,22.47
2023-04-16T03:15:18.010Z,22.47
2023-04-16T03:16:18.078Z,22.48
2023-04-16T03:17:18.073Z,22.47
2023-04-16T03:18:18.033Z,22.47
2023-04-16T03:19:18.012Z,22.47
2023-04-16T03:20:17.996Z,22.46
2023-04-16T03:21:18.022Z,22.47
2023-04-16T03:22:18.022Z,22.46
2023-04-16T03:23:18.012Z,22.46
2023-04-16T03:24:18.169Z,22.46
2023-04-16T03:25:18.120Z,22.46
2023-04-16T03:26:18.196Z,22.46
2023-04-16T03:27:18.243Z,22.46
2023-04-16T03:28:18.310Z,22.46
2023-04-16T03:29:18.355Z,22.46
2023-04-16T03:30:18.396Z,22.46
2023-04-16T03:31:18.585Z,22.45
2023-04-16T03:32:18.564Z,22.46
2023-04-16T03:33:18.623Z,22.45
2023-04-16T03:34:18.634Z,22.45
2023-04-16T03:35:18.740Z,22.45
2023-04-16T03:36:18.745Z,22.44
2023-04-16T03:37:18.819Z,22.45
2023-04-16T03:38:18.878Z,22.45
2023-04-16T03:39:18.948Z,22.45
2023-04-16T03:40:19.003Z,22.45
2023-04-16T03:41:19.096Z,22.45
2023-04-16T03:42:19.116Z,22.45
2023-04-16T03:43:19.178Z,22.45
2023-04-16T03:44:19.228Z,22.44
2023-04-16T03:45:19.255Z,22.45
2023-04-16T03:46:19.357Z,22.45
2023-04-16T03:47:19.389Z,22.45
2023-04-16T03:48:19.568Z,22.44
2023-04-16T03:49:19.422Z,22.44
2023-04-16T03:50:19.533Z,22.44
2023-04-16T03:51:19.539Z,22.44
2023-04-16T03:52:19.573Z,22.44
2023-04-16T03:53:19.625Z,22.44
2023-04-16T03:54:22.051Z,22.44
2023-04-16T03:55:19.655Z,22.44
2023-04-16T03:56:19.657Z,22.44
2023-04-16T03:57:19.637Z,22.44
2023-04-16T03:58:19.610Z,22.44
2023-04-16T03:59:19.613Z,22.43
2023-04-16T04:00:19.609Z,22.44
2023-04-16T04:01:19.635Z,22.43
2023-04-16T04:02:19.913Z,22.43
2023-04-16T04:03:19.833Z,22.43
2023-04-16T04:04:19.760Z,22.42
2023-04-16T04:05:19.608Z,22.43
2023-04-16T04:06:19.595Z,22.43
2023-04-16T04:07:19.537Z,22.43
2023-04-16T04:08:19.552Z,22.43
2023-04-16T04:09:19.577Z,22.43
2023-04-16T04:10:19.567Z,22.43
2023-04-16T04:11:19.517Z,22.43
2023-04-16T04:12:19.525Z,22.43
2023-04-16T04:13:19.531Z,22.43
2023-04-16T04:14:19.480Z,22.43
2023-04-16T04:15:19.581Z,22.43
2023-04-16T04:16:19.570Z,22.43
2023-04-16T04:17:19.539Z,22.43
2023-04-16T04:18:19.522Z,22.43
2023-04-16T04:19:19.548Z,22.42
2023-04-16T04:20:19.483Z,22.42
2023-04-16T04:21:19.501Z,22.42
2023-04-16T04:22:19.448Z,22.42
2023-04-16T04:23:19.441Z,22.43
2023-04-16T04:24:19.455Z,22.42
2023-04-16T04:25:19.471Z,22.43
2023-04-16T04:26:19.466Z,22.42
2023-04-16T04:27:19.431Z,22.42
2023-04-16T04:28:19.442Z,22.42
2023-04-16T04:29:19.382Z,22.41
2023-04-16T04:30:19.426Z,22.42
2023-04-16T04:31:19.452Z,22.42
2023-04-16T04:32:19.460Z,22.42
2023-04-16T04:33:19.539Z,22.42
2023-04-16T04:34:19.378Z,22.42
2023-04-16T04:35:19.389Z,22.41
2023-04-16T04:36:19.346Z,22.42
2023-04-16T04:37:19.336Z,22.41
2023-04-16T04:38:19.344Z,22.43
2023-04-16T04:39:19.353Z,22.41
2023-04-16T04:40:19.329Z,22.41
2023-04-16T04:41:19.285Z,22.41
2023-04-16T04:42:19.327Z,22.42
2023-04-16T04:43:19.327Z,22.42
2023-04-16T04:44:19.271Z,22.42
2023-04-16T04:45:19.239Z,22.41
2023-04-16T04:46:19.412Z,22.42
2023-04-16T04:47:19.318Z,22.42
2023-04-16T04:48:19.253Z,22.41
2023-04-16T04:49:19.257Z,22.41
2023-04-16T04:50:19.272Z,22.42
2023-04-16T04:51:19.235Z,22.41
2023-04-16T04:52:19.359Z,22.41
2023-04-16T04:53:19.267Z,22.41
2023-04-16T04:54:19.289Z,22.41
2023-04-16T04:55:19.201Z,22.42
2023-04-16T04:56:19.275Z,22.41
2023-04-16T04:57:19.836Z,22.41
2023-04-16T04:58:19.195Z,22.42
2023-04-16T04:59:19.144Z,22.41
2023-04-16T05:00:19.186Z,22.41
2023-04-16T05:01:19.356Z,22.41
2023-04-16T05:02:19.279Z,22.41
2023-04-16T05:03:19.183Z,22.42
2023-04-16T05:04:19.404Z,22.41
2023-04-16T05:05:19.368Z,22.41
2023-04-16T05:06:19.174Z,22.41
2023-04-16T05:07:19.224Z,22.42
2023-04-16T05:08:19.232Z,22.41
2023-04-16T05:09:19.191Z,22.41
2023-04-16T05:10:19.217Z,22.41
2023-04-16T05:11:19.272Z,22.41
2023-04-16T05:12:19.274Z,22.41
2023-04-16T05:13:19.325Z,22.41
2023-04-16T05:14:19.332Z,22.41
2023-04-16T05:15:19.410Z,22.41
2023-04-16T05:16:19.453Z,22.41
2023-04-16T05:17:19.518Z,22.41
2023-04-16T05:18:19.414Z,22.41
2023-04-16T05:19:19.420Z,22.40
2023-04-16T05:20:19.423Z,22.41
2023-04-16T05:21:19.482Z,22.41
2023-04-16T05:22:19.456Z,22.41
2023-04-16T05:23:19.498Z,22.41
2023-04-16T05:24:19.511Z,22.41
2023-04-16T05:25:19.513Z,22.41
2023-04-16T05:26:19.528Z,22.41
2023-04-16T05:27:19.540Z,22.40
2023-04-16T05:28:19.612Z,22.41
2023-04-16T05:29:19.612Z,22.41
2023-04-16T05:30:19.650Z,22.41
2023-04-16T05:31:19.860Z,22.41
2023-04-16T05:32:19.709Z,22.41
2023-04-16T05:33:19.655Z,22.41
2023-04-16T05:34:19.731Z,22.41
2023-04-16T05:35:19.706Z,22.40
2023-04-16T05:36:19.689Z,22.41
2023-04-16T05:37:19.706Z,22.42
2023-04-16T05:38:19.673Z,22.41
2023-04-16T05:39:19.723Z,22.41
2023-04-16T05:40:19.703Z,22.41
2023-04-16T05:41:19.821Z,22.41
2023-04-16T05:42:19.785Z,22.41
2023-04-16T05:43:19.735Z,22.41
2023-04-16T05:44:19.801Z,22.41
2023-04-16T05:45:19.793Z,22.41
2023-04-16T05:46:19.944Z,22.40
2023-04-16T05:47:19.984Z,22.41
2023-04-16T05:48:19.951Z,22.41
2023-04-16T05:49:19.929Z,22.41
2023-04-16T05:50:20.194Z,22.42
2023-04-16T05:51:19.987Z,22.42
2023-04-16T05:52:20.006Z,22.42
2023-04-16T05:53:20.028Z,22.42
2023-04-16T05:54:20.039Z,22.41
2023-04-16T05:55:20.076Z,22.41
2023-04-16T05:56:20.078Z,22.42
2023-04-16T05:57:20.196Z,22.42
2023-04-16T05:58:20.092Z,22.42
2023-04-16T05:59:20.155Z,22.42
2023-04-16T06:00:20.121Z,22.42
2023-04-16T06:01:20.121Z,22.42
2023-04-16T06:02:20.329Z,22.42
2023-04-16T06:03:20.232Z,22.42
2023-04-16T06:04:20.254Z,22.43
2023-04-16T06:05:20.876Z,22.43
2023-04-16T06:06:20.304Z,22.42
2023-04-16T06:07:20.211Z,22.43
2023-04-16T06:08:20.318Z,22.43
2023-04-16T06:09:20.216Z,22.44
2023-04-16T06:10:20.307Z,22.44
2023-04-16T06:11:20.322Z,22.44
2023-04-16T06:12:20.361Z,22.44
2023-04-16T06:13:20.524Z,22.44
2023-04-16T06:14:20.457Z,22.44
2023-04-16T06:15:20.462Z,22.45
2023-04-16T06:16:20.490Z,22.44
2023-04-16T06:17:20.552Z,22.45
2023-04-16T06:18:20.551Z,22.45
2023-04-16T06:19:20.541Z,22.45
2023-04-16T06:20:20.796Z,22.46
2023-04-16T06:21:20.617Z,22.46
2023-04-16T06:22:20.895Z,22.45
2023-04-16T06:23:20.881Z,22.45
2023-04-16T06:24:20.850Z,22.45
2023-04-16T06:25:20.701Z,22.45
2023-04-16T06:26:20.769Z,22.45
2023-04-16T06:27:20.768Z,22.45
2023-04-16T06:28:20.818Z,22.45
2023-04-16T06:29:22.512Z,22.46
2023-04-16T06:30:21.788Z,22.46
2023-04-16T06:31:20.909Z,22.46
2023-04-16T06:32:20.879Z,22.47
2023-04-16T06:33:20.806Z,22.47
2023-04-16T06:34:20.788Z,22.47
2023-04-16T06:35:20.921Z,22.47
2023-04-16T06:36:20.783Z,22.47
2023-04-16T06:37:20.728Z,22.47
2023-04-16T06:38:20.771Z,22.47
2023-04-16T06:39:20.781Z,22.47
2023-04-16T06:40:20.747Z,22.48
2023-04-16T06:41:20.735Z,22.47
2023-04-16T06:42:20.852Z,22.47
2023-04-16T06:43:20.755Z,22.47
2023-04-16T06:44:20.749Z,22.48
2023-04-16T06:45:20.711Z,22.48
2023-04-16T06:46:20.749Z,22.48
2023-04-16T06:47:20.719Z,22.48
2023-04-16T06:48:20.687Z,22.48
2023-04-16T06:49:20.688Z,22.49
2023-04-16T06:50:20.754Z,22.49
2023-04-16T06:51:20.656Z,22.49
2023-04-16T06:52:20.710Z,22.50
2023-04-16T06:53:20.729Z,22.50
2023-04-16T06:54:20.690Z,22.50
2023-04-16T06:55:20.753Z,22.51
2023-04-16T06:56:20.660Z,22.52
2023-04-16T06:57:20.746Z,22.53
2023-04-16T06:58:20.708Z,22.53
2023-04-16T06:59:20.764Z,22.53
2023-04-16T07:00:20.761Z,22.53
2023-04-16T07:01:20.825Z,22.54
2023-04-16T07:02:20.982Z,22.55
2023-04-16T07:03:21.141Z,22.55
2023-04-16T07:04:21.118Z,22.56
2023-04-16T07:05:21.063Z,22.56
2023-04-16T07:06:21.058Z,22.57
2023-04-16T07:07:21.133Z,22.57
2023-04-16T07:08:21.146Z,22.57
2023-04-16T07:09:21.161Z,22.57
2023-04-16T07:10:21.233Z,22.57
2023-04-16T07:11:21.367Z,22.58
2023-04-16T07:12:22.584Z,22.58
2023-04-16T07:13:21.283Z,22.57
2023-04-16T07:14:21.332Z,22.58
2023-04-16T07:15:21.295Z,22.58
2023-04-16T07:16:21.333Z,22.59
2023-04-16T07:17:21.352Z,22.58
2023-04-16T07:18:21.361Z,22.59
2023-04-16T07:19:21.364Z,22.59
2023-04-16T07:20:21.409Z,22.59
2023-04-16T07:21:21.336Z,22.60
2023-04-16T07:22:21.385Z,22.60
2023-04-16T07:23:21.391Z,22.61
2023-04-16T07:24:21.412Z,22.60
2023-04-16T07:25:21.405Z,22.61
2023-04-16T07:26:21.677Z,22.61
2023-04-16T07:27:21.563Z,22.62
2023-04-16T07:28:21.650Z,22.62
2023-04-16T07:29:21.638Z,22.62
2023-04-16T07:30:21.769Z,22.63
2023-04-16T07:31:21.620Z,22.63
2023-04-16T07:32:21.672Z,22.63
2023-04-16T07:33:21.605Z,22.63
2023-04-16T07:34:21.613Z,22.63
2023-04-16T07:35:21.618Z,22.64
2023-04-16T07:36:21.637Z,22.64
2023-04-16T07:37:21.652Z,22.65
2023-04-16T07:38:21.639Z,22.66
2023-04-16T07:39:21.629Z,22.66
2023-04-16T07:40:21.601Z,22.67
2023-04-16T07:41:21.615Z,22.68
2023-04-16T07:42:21.741Z,22.69
2023-04-16T07:43:21.633Z,22.69
2023-04-16T07:44:21.605Z,22.71
2023-04-16T07:45:21.707Z,22.72
2023-04-16T07:46:21.914Z,22.72
2023-04-16T07:47:21.706Z,22.73
2023-04-16T07:48:21.705Z,22.73
2023-04-16T07:49:22.440Z,22.74
2023-04-16T07:50:21.670Z,22.75
2023-04-16T07:51:21.728Z,22.75
2023-04-16T07:52:21.693Z,22.75
2023-04-16T07:53:21.687Z,22.75
2023-04-16T07:54:21.662Z,22.76
2023-04-16T07:55:21.752Z,22.75
2023-04-16T07:56:21.791Z,22.76
2023-04-16T07:57:21.873Z,22.77
2023-04-16T07:58:21.895Z,22.77
2023-04-16T07:59:23.871Z,22.78
2023-04-16T08:00:22.225Z,22.78
2023-04-16T08:01:22.267Z,22.80
2023-04-16T08:02:22.382Z,22.80
2023-04-16T08:03:22.580Z,22.82
2023-04-16T08:04:22.537Z,22.83
2023-04-16T08:05:22.518Z,22.83
2023-04-16T08:06:22.466Z,22.85
2023-04-16T08:07:22.662Z,22.86
2023-04-16T08:08:22.559Z,22.87
2023-04-16T08:09:22.654Z,22.88
2023-04-16T08:10:22.711Z,22.89
2023-04-16T08:11:22.679Z,22.91
2023-04-16T08:12:22.689Z,22.91
2023-04-16T08:13:22.797Z,22.92
2023-04-16T08:14:22.815Z,22.93
2023-04-16T08:15:22.879Z,22.95
2023-04-16T08:16:22.994Z,22.95
2023-04-16T08:17:23.036Z,22.96
2023-04-16T08:18:23.036Z,22.97
2023-04-16T08:19:23.184Z,22.98
2023-04-16T08:20:23.173Z,22.98
2023-04-16T08:21:23.152Z,22.99
2023-04-16T08:22:23.258Z,23.01
2023-04-16T08:23:23.440Z,23.01
2023-04-16T08:24:23.279Z,23.01
2023-04-16T08:25:23.365Z,23.02
2023-04-16T08:26:23.417Z,23.03
2023-04-16T08:27:23.420Z,23.03
2023-04-16T08:28:23.436Z,23.03
2023-04-16T08:29:23.544Z,23.02
2023-04-16T08:31:42.375Z,22.98
2023-04-16T08:32:42.432Z,22.99
2023-04-16T08:33:42.379Z,22.99
2023-04-16T08:34:42.452Z,22.99
2023-04-16T08:35:42.342Z,23.00
2023-04-16T08:36:42.380Z,22.99
2023-04-16T08:37:42.334Z,22.99
2023-04-16T08:38:42.347Z,22.99
2023-04-16T08:39:42.368Z,22.99
2023-04-16T08:40:42.333Z,22.99
2023-04-16T08:41:42.305Z,22.98
2023-04-16T08:42:42.303Z,22.98
2023-04-16T08:43:42.277Z,22.99
2023-04-16T08:44:42.284Z,22.99
2023-04-16T08:45:42.332Z,22.99
2023-04-16T08:46:42.290Z,23.01
2023-04-16T08:47:42.323Z,23.01
2023-04-16T08:48:42.288Z,23.01
2023-04-16T08:49:42.290Z,23.01
2023-04-16T08:50:42.264Z,23.01
2023-04-16T08:51:42.244Z,23.02
2023-04-16T08:52:42.337Z,23.02
2023-04-16T08:53:42.216Z,23.02
2023-04-16T08:54:42.240Z,23.02
2023-04-16T08:55:42.245Z,23.02
2023-04-16T08:56:43.184Z,23.03
2023-04-16T08:57:42.212Z,23.03
2023-04-16T08:58:42.171Z,23.03
2023-04-16T08:59:42.174Z,23.04
2023-04-16T09:00:42.169Z,23.04
2023-04-16T09:01:42.217Z,23.06
2023-04-16T09:02:42.313Z,23.06
2023-04-16T09:03:42.250Z,23.07
2023-04-16T09:04:42.301Z,23.09
2023-04-16T09:05:42.321Z,23.10
2023-04-16T09:06:42.295Z,23.10
2023-04-16T09:07:42.389Z,23.11
2023-04-16T09:08:42.435Z,23.11
2023-04-16T09:09:42.492Z,23.12
2023-04-16T09:10:42.553Z,23.12
2023-04-16T09:11:42.580Z,23.13
2023-04-16T09:12:42.764Z,23.13
2023-04-16T09:13:42.741Z,23.14
2023-04-16T09:14:42.731Z,23.14
2023-04-16T09:15:42.784Z,23.14
2023-04-16T09:16:42.950Z,23.14
2023-04-16T09:17:42.936Z,23.15
2023-04-16T09:18:42.924Z,23.15
2023-04-16T09:19:43.012Z,23.16
2023-04-16T09:20:43.025Z,23.16
2023-04-16T09:21:43.649Z,23.16
2023-04-16T09:22:43.132Z,23.16
2023-04-16T09:23:43.165Z,23.16
2023-04-16T09:24:43.246Z,23.16
2023-04-16T09:25:43.253Z,23.17
2023-04-16T09:26:43.329Z,23.18
2023-04-16T09:27:43.398Z,23.19
2023-04-16T09:28:43.409Z,23.19
2023-04-16T09:29:43.651Z,23.19
2023-04-16T09:30:43.526Z,23.20
2023-04-16T09:31:43.753Z,23.20
2023-04-16T09:32:43.668Z,23.21
2023-04-16T09:33:43.774Z,23.22
2023-04-16T09:34:43.720Z,23.23
2023-04-16T09:35:43.728Z,23.24
2023-04-16T09:36:43.765Z,23.25
2023-04-16T09:37:43.812Z,23.26
2023-04-16T09:38:43.926Z,23.27
2023-04-16T09:39:43.895Z,23.28
2023-04-16T09:40:43.968Z,23.28
2023-04-16T09:41:44.070Z,23.29
2023-04-16T09:42:44.057Z,23.31
2023-04-16T09:43:44.084Z,23.31
2023-04-16T09:44:44.211Z,23.32
2023-04-16T09:45:44.214Z,23.33
2023-04-16T09:46:44.219Z,23.34
2023-04-16T09:47:44.274Z,23.35
2023-04-16T09:48:44.238Z,23.37
2023-04-16T09:49:44.282Z,23.36
2023-04-16T09:50:44.312Z,23.38
2023-04-16T09:51:44.372Z,23.38
2023-04-16T09:52:44.360Z,23.39
2023-04-16T09:53:45.115Z,23.39
2023-04-16T09:54:44.490Z,23.40
2023-04-16T09:55:46.419Z,23.41
2023-04-16T09:56:44.583Z,23.42
2023-04-16T09:57:44.500Z,23.44
2023-04-16T09:58:44.570Z,23.44
2023-04-16T09:59:44.730Z,23.44
2023-04-16T10:00:44.584Z,23.46
2023-04-16T10:01:44.703Z,23.46
2023-04-16T10:02:44.691Z,23.47
2023-04-16T10:03:44.776Z,23.48
2023-04-16T10:04:44.697Z,23.49
2023-04-16T10:05:44.792Z,23.50
2023-04-16T10:06:44.788Z,23.50
2023-04-16T10:07:44.782Z,23.51
2023-04-16T10:08:44.788Z,23.52
2023-04-16T10:09:44.782Z,23.52
2023-04-16T10:10:44.811Z,23.53
2023-04-16T10:11:44.800Z,23.53
2023-04-16T10:12:44.914Z,23.54
2023-04-16T10:13:44.876Z,23.54
2023-04-16T10:14:44.843Z,23.54
2023-04-16T10:15:44.938Z,23.54
2023-04-16T10:16:44.991Z,23.55
2023-04-16T10:17:44.958Z,23.56
2023-04-16T10:18:45.057Z,23.55
2023-04-16T10:19:45.055Z,23.56
2023-04-16T10:20:45.031Z,23.56
2023-04-16T10:21:45.034Z,23.56
2023-04-16T10:22:45.075Z,23.56
2023-04-16T10:23:45.047Z,23.57
2023-04-16T10:24:45.638Z,23.57
2023-04-16T10:25:45.103Z,23.56
2023-04-16T10:26:45.169Z,23.56
2023-04-16T10:27:45.190Z,23.57
2023-04-16T10:28:45.184Z,23.57
2023-04-16T10:29:45.437Z,23.57
2023-04-16T10:30:45.285Z,23.57
2023-04-16T10:31:45.239Z,23.57
2023-04-16T10:32:45.389Z,23.58
2023-04-16T10:33:45.350Z,23.59
2023-04-16T10:34:45.377Z,23.59
2023-04-16T10:35:46.876Z,23.59
2023-04-16T10:36:46.414Z,23.59
2023-04-16T10:37:45.388Z,23.60
2023-04-16T10:38:45.402Z,23.61
2023-04-16T10:39:45.397Z,23.62
2023-04-16T10:40:45.367Z,23.62
2023-04-16T10:41:45.376Z,23.63
2023-04-16T10:42:45.396Z,23.64
2023-04-16T10:43:45.453Z,23.64
2023-04-16T10:44:45.729Z,23.66
2023-04-16T10:45:45.487Z,23.66
2023-04-16T10:46:45.360Z,23.66
2023-04-16T10:47:45.360Z,23.67
2023-04-16T10:49:45.328Z,23.67
2023-04-16T10:50:45.371Z,23.67
2023-04-16T10:51:45.334Z,23.67
2023-04-16T10:52:45.272Z,23.67
2023-04-16T10:53:45.294Z,23.68
2023-04-16T10:54:45.288Z,23.68
2023-04-16T10:55:45.265Z,23.68
2023-04-16T10:56:45.309Z,23.69
2023-04-16T10:57:45.317Z,23.69
2023-04-16T10:58:45.298Z,23.69
2023-04-16T10:59:45.246Z,23.69
2023-04-16T11:00:45.222Z,23.69
2023-04-16T11:01:45.302Z,23.68
2023-04-16T11:02:45.884Z,23.69
2023-04-16T11:03:45.310Z,23.68
2023-04-16T11:04:45.657Z,23.68
2023-04-16T11:05:45.228Z,23.68
2023-04-16T11:06:45.196Z,23.69
2023-04-16T11:07:45.209Z,23.69
2023-04-16T11:08:53.861Z,23.68
2023-04-16T11:09:46.218Z,23.67
2023-04-16T11:10:45.223Z,23.68
2023-04-16T11:11:45.182Z,23.67
2023-04-16T11:12:45.206Z,23.67
2023-04-16T11:13:45.193Z,23.66
2023-04-16T11:14:45.139Z,23.66
2023-04-16T11:15:45.254Z,23.65
2023-04-16T11:16:45.153Z,23.66
2023-04-16T11:17:45.229Z,23.66
2023-04-16T11:18:51.306Z,23.65
2023-04-16T11:19:46.253Z,23.64
2023-04-16T11:20:45.133Z,23.64
2023-04-16T11:21:45.081Z,23.64
2023-04-16T11:22:45.190Z,23.62
2023-04-16T11:23:45.104Z,23.62
2023-04-16T11:24:45.108Z,23.61
2023-04-16T11:25:45.056Z,23.60
2023-04-16T11:26:45.096Z,23.60
2023-04-16T11:27:45.075Z,23.59
2023-04-16T11:28:45.077Z,23.58
2023-04-16T11:29:47.444Z,23.58
2023-04-16T11:30:46.182Z,23.58
2023-04-16T11:31:45.425Z,23.57
2023-04-16T11:32:45.756Z,23.57
2023-04-16T11:33:45.243Z,23.56
2023-04-16T11:34:45.239Z,23.56
2023-04-16T11:35:45.472Z,23.56
2023-04-16T11:36:45.301Z,23.56
2023-04-16T11:37:45.316Z,23.55
2023-04-16T11:38:45.375Z,23.56
2023-04-16T11:39:45.363Z,23.56
2023-04-16T11:40:45.388Z,23.56
2023-04-16T11:41:45.367Z,23.57
2023-04-16T11:42:45.428Z,23.57
2023-04-16T11:43:45.434Z,23.57
2023-04-16T11:44:45.435Z,23.58
2023-04-16T11:45:45.526Z,23.59
2023-04-16T11:46:45.508Z,23.59
2023-04-16T11:47:45.513Z,23.59
2023-04-16T11:48:45.500Z,23.60
2023-04-16T11:49:45.489Z,23.61
2023-04-16T11:50:45.686Z,23.61
2023-04-16T11:51:45.501Z,23.61
2023-04-16T11:52:45.574Z,23.61
2023-04-16T11:53:45.561Z,23.60
2023-04-16T11:54:45.626Z,23.60
2023-04-16T11:55:45.683Z,23.60
2023-04-16T11:56:45.729Z,23.60
2023-04-16T11:57:46.755Z,23.60
2023-04-16T11:58:45.743Z,23.61
2023-04-16T12:00:01.790Z,23.60
2023-04-16T12:00:46.808Z,23.60
2023-04-16T12:01:46.675Z,23.60
2023-04-16T12:02:46.007Z,23.61
2023-04-16T12:03:46.111Z,23.61
2023-04-16T12:04:46.325Z,23.61
2023-04-16T12:05:45.707Z,23.61
2023-04-16T12:06:45.716Z,23.61
2023-04-16T12:07:45.700Z,23.59
2023-04-16T12:08:45.708Z,23.58
2023-04-16T12:09:45.715Z,23.58
2023-04-16T12:10:45.698Z,23.57
2023-04-16T12:11:45.710Z,23.57
2023-04-16T12:12:45.707Z,23.57
2023-04-16T12:13:45.722Z,23.57
2023-04-16T12:14:45.681Z,23.57
2023-04-16T12:15:45.649Z,23.57
2023-04-16T12:16:45.757Z,23.57
2023-04-16T12:17:45.668Z,23.56
2023-04-16T12:18:45.627Z,23.56
2023-04-16T12:19:45.660Z,23.56
2023-04-16T12:20:45.694Z,23.56
2023-04-16T12:21:45.582Z,23.56
2023-04-16T12:22:45.690Z,23.56
2023-04-16T12:23:45.602Z,23.57
2023-04-16T12:24:45.564Z,23.57
2023-04-16T12:25:45.807Z,23.56
2023-04-16T12:26:45.660Z,23.56
2023-04-16T12:27:45.550Z,23.57
2023-04-16T12:28:45.642Z,23.57
2023-04-16T12:29:45.626Z,23.56
2023-04-16T12:30:45.698Z,23.56
2023-04-16T12:31:45.651Z,23.56
2023-04-16T12:32:45.685Z,23.55
2023-04-16T12:33:45.654Z,23.55
2023-04-16T12:34:49.152Z,23.54
2023-04-16T12:35:46.160Z,23.54
2023-04-16T12:36:45.646Z,23.54
2023-04-16T12:37:45.687Z,23.53
2023-04-16T12:38:45.627Z,23.54
2023-04-16T12:39:47.590Z,23.55
2023-04-16T12:40:45.648Z,23.55
2023-04-16T12:41:45.707Z,23.56
2023-04-16T12:42:45.649Z,23.56
2023-04-16T12:43:45.730Z,23.57
2023-04-16T12:44:45.737Z,23.57
2023-04-16T12:45:45.757Z,23.57
2023-04-16T12:46:45.784Z,23.57
2023-04-16T12:47:45.810Z,23.57
2023-04-16T12:48:45.854Z,23.58
2023-04-16T12:49:45.886Z,23.57
2023-04-16T12:50:45.913Z,23.57
2023-04-16T12:51:45.922Z,23.57
2023-04-16T12:52:45.921Z,23.57
2023-04-16T12:53:45.930Z,23.57
2023-04-16T12:54:45.944Z,23.57